Terminal Aerodrome Forecast
Issued by NWS

Home | Current Version | Previous Version | Text Only | Print | Product List | Glossary On
Versions: 1 2 3 4 5 6 7 8 9 10 11 12 13 14 15 16 17
725
FTUS43 KDTX 270708 AAA
TAFMBS
TAF AMD
KMBS 270708Z 2707/2806 21004KT 4SM BR SCT250
     FM270900 VRB05KT 1SM BR SCT005 BKN200
     FM271300 20007KT P6SM SCT030
     FM271500 19010KT P6SM BKN035 PROB30 2721/2724 6SM TSRA OVC035CB
     FM280100 20006KT P6SM SCT060 BKN200=

USA.gov is the U.S. government's official web portal to all federal, state and local government web resources and services.